Time;durP1;ratioP1;P1;durP2;ratioP2;P2;SDS_P1;SDS_P2;PMS_P1;PMS_P2;Temp;Humidity;BMP_temperature;BMP_pressure;BME280_temperature;BME280_humidity;BME280_pressure;Samples;Min_cycle;Max_cycle;Signal;HPM_P1;HPM_P2
2023/04/26 00:01:59;;;;;;;2.33;1.00;;;;;;;7.20;54.82;100984.50;4952940;28;20460;-41
2023/04/26 00:04:27;;;;;;;5.30;1.10;;;;;;;7.17;55.28;100985.50;4962663;28;20058;-42
2023/04/26 00:06:53;;;;;;;5.65;1.35;;;;;;;7.06;55.85;101002.53;4951817;28;20073;-42
2023/04/26 00:09:19;;;;;;;6.85;1.40;;;;;;;7.05;55.70;100991.22;4954804;28;20608;-43
2023/04/26 00:11:44;;;;;;;4.97;0.90;;;;;;;7.07;55.31;100993.75;4957156;28;20389;-43
2023/04/26 00:14:10;;;;;;;0.90;0.57;;;;;;;7.10;55.40;100996.28;4958546;28;20413;-42
2023/04/26 00:16:35;;;;;;;10.73;1.70;;;;;;;7.04;55.86;100999.09;4954371;28;20078;-42
2023/04/26 00:19:01;;;;;;;1.33;0.73;;;;;;;7.07;56.04;100999.88;4949442;28;20062;-44
2023/04/26 00:21:27;;;;;;;9.32;1.65;;;;;;;7.09;55.46;101002.41;4949935;28;20039;-45
2023/04/26 00:23:53;;;;;;;5.38;1.33;;;;;;;7.06;55.93;101002.53;4953392;28;20098;-45
2023/04/26 00:26:19;;;;;;;7.90;1.00;;;;;;;7.12;55.27;101002.28;4962635;28;20041;-42
2023/04/26 00:28:44;;;;;;;2.70;0.93;;;;;;;7.11;55.65;100995.34;4950771;28;20039;-43
2023/04/26 00:31:16;;;;;;;7.03;0.95;;;;;;;7.20;55.47;101000.22;4957245;28;20038;-44
2023/04/26 00:33:43;;;;;;;6.05;1.30;;;;;;;7.15;56.04;101002.19;4956289;28;20117;-42
2023/04/26 00:36:09;;;;;;;4.38;1.38;;;;;;;7.00;56.29;101001.88;4952498;28;20182;-43
2023/04/26 00:38:34;;;;;;;7.28;1.20;;;;;;;7.01;56.17;101000.09;4956817;28;20023;-43
2023/04/26 00:41:00;;;;;;;4.18;1.38;;;;;;;7.04;56.31;100994.75;4961567;28;20042;-43
2023/04/26 00:43:25;;;;;;;8.38;0.98;;;;;;;7.05;56.07;101003.44;4952276;28;20139;-43
2023/04/26 00:45:51;;;;;;;11.73;1.27;;;;;;;6.96;56.72;100997.66;4952486;28;20026;-45
2023/04/26 00:48:17;;;;;;;4.70;0.95;;;;;;;6.97;56.20;100994.13;4949759;28;20046;-43
2023/04/26 00:50:43;;;;;;;10.57;1.55;;;;;;;6.92;56.59;101000.47;4958570;28;20568;-44
2023/04/26 00:53:10;;;;;;;8.25;1.10;;;;;;;6.77;56.90;101004.50;4959761;28;20086;-43
2023/04/26 00:55:36;;;;;;;5.18;1.13;;;;;;;6.53;58.11;101001.91;4954387;28;22492;-44
2023/04/26 00:58:01;;;;;;;4.30;1.52;;;;;;;6.60;57.47;100994.66;4961079;28;21010;-43
2023/04/26 01:00:27;;;;;;;8.05;1.27;;;;;;;6.56;58.17;101009.63;4956744;28;20031;-45
2023/04/26 01:02:52;;;;;;;11.50;1.33;;;;;;;6.49;58.71;101008.13;4955167;28;20498;-43
2023/04/26 01:05:18;;;;;;;8.13;1.02;;;;;;;6.38;58.75;101006.78;4963538;28;20035;-42
2023/04/26 01:07:44;;;;;;;9.20;2.53;;;;;;;6.33;59.11;101002.63;4959642;28;20384;-43
2023/04/26 01:10:10;;;;;;;5.22;0.93;;;;;;;6.32;59.03;101012.19;4958925;28;20561;-43
2023/04/26 01:12:37;;;;;;;4.25;1.05;;;;;;;6.36;58.65;101005.97;4953240;28;20114;-43
2023/04/26 01:15:04;;;;;;;9.63;1.50;;;;;;;6.34;58.91;101015.63;4960180;28;20062;-42
2023/04/26 01:17:30;;;;;;;4.32;1.00;;;;;;;6.38;58.73;101005.91;4956873;28;20118;-43
2023/04/26 01:19:55;;;;;;;7.25;1.58;;;;;;;6.43;58.86;101009.22;4956334;28;20137;-43
2023/04/26 01:22:21;;;;;;;6.80;0.98;;;;;;;6.49;58.10;101014.22;4959583;28;20182;-42
2023/04/26 01:24:50;;;;;;;5.43;1.15;;;;;;;6.51;58.60;101017.63;4961173;28;20035;-43
2023/04/26 01:27:16;;;;;;;6.25;0.90;;;;;;;6.51;58.27;101009.78;4959134;28;20093;-43
2023/04/26 01:29:42;;;;;;;8.00;1.80;;;;;;;6.56;57.82;101009.63;4947312;28;20026;-44
2023/04/26 01:32:07;;;;;;;8.05;1.25;;;;;;;6.58;57.87;101018.25;4959136;28;20046;-42
2023/04/26 01:34:33;;;;;;;3.50;0.85;;;;;;;6.53;58.22;101012.34;4955172;28;20026;-42
2023/04/26 01:37:00;;;;;;;7.13;1.40;;;;;;;6.53;58.65;101012.34;4954798;28;20138;-44
2023/04/26 01:39:25;;;;;;;9.38;1.67;;;;;;;6.80;57.66;101012.22;4953201;28;20041;-44
2023/04/26 01:41:51;;;;;;;8.32;1.20;;;;;;;6.77;58.38;101014.94;4962287;28;20027;-43
2023/04/26 01:44:16;;;;;;;2.30;0.75;;;;;;;6.69;59.21;101030.94;4951790;28;20035;-43
2023/04/26 01:46:42;;;;;;;11.60;1.50;;;;;;;6.64;58.12;101025.88;4955130;28;20027;-42
2023/04/26 01:49:07;;;;;;;5.35;1.20;;;;;;;6.60;58.20;101016.44;4956859;28;20575;-42
2023/04/26 01:51:33;;;;;;;5.07;1.27;;;;;;;6.70;57.84;101017.81;4956336;28;20031;-43
2023/04/26 01:53:59;;;;;;;5.07;0.88;;;;;;;6.62;58.89;101025.06;4954857;28;20026;-43
2023/04/26 01:56:24;;;;;;;5.22;1.40;;;;;;;6.49;59.12;101026.44;4954633;28;20022;-43
2023/04/26 01:58:50;;;;;;;3.70;1.00;;;;;;;6.64;58.03;101020.66;4959292;28;20026;-45
2023/04/26 02:01:16;;;;;;;7.65;1.58;;;;;;;6.61;59.24;101025.97;4952197;28;20031;-42
2023/04/26 02:03:41;;;;;;;5.43;1.63;;;;;;;6.52;59.50;101023.72;4958850;28;20030;-43
2023/04/26 02:06:07;;;;;;;7.85;1.38;;;;;;;6.52;58.71;101024.56;4962515;28;20070;-43
2023/04/26 02:08:33;;;;;;;6.03;1.17;;;;;;;6.51;58.88;101017.63;4963229;28;20035;-42
2023/04/26 02:10:58;;;;;;;2.10;0.73;;;;;;;6.55;58.83;101019.22;4960119;28;20133;-43
2023/04/26 02:13:24;;;;;;;5.25;0.95;;;;;;;6.61;58.56;101018.13;4959049;28;20031;-42
2023/04/26 02:15:50;;;;;;;10.27;2.08;;;;;;;6.67;58.31;101017.91;4954075;28;21243;-42
2023/04/26 02:18:16;;;;;;;7.82;1.77;;;;;;;6.62;58.54;101025.06;4954478;28;20184;-42
2023/04/26 02:20:43;;;;;;;3.53;1.05;;;;;;;6.58;58.83;101027.88;4962086;28;20486;-42
2023/04/26 02:23:09;;;;;;;8.75;1.17;;;;;;;6.61;58.29;101025.97;4953424;28;20501;-43
2023/04/26 02:25:35;;;;;;;5.90;2.17;;;;;;;6.65;57.98;101027.59;4959945;28;20118;-42
2023/04/26 02:28:00;;;;;;;8.27;0.82;;;;;;;6.49;58.94;101013.38;4957305;28;20090;-43
2023/04/26 02:30:27;;;;;;;7.50;1.15;;;;;;;6.53;58.33;101014.97;4951109;28;20042;-44
2023/04/26 02:32:55;;;;;;;10.32;1.42;;;;;;;6.47;59.18;101020.41;4963897;28;20023;-42
2023/04/26 02:35:21;;;;;;;8.82;1.75;;;;;;;6.50;58.74;101015.06;4956547;28;20034;-42
2023/04/26 02:37:47;;;;;;;8.02;1.67;;;;;;;6.44;59.04;101017.88;4961122;28;20030;-44
2023/04/26 02:40:17;;;;;;;7.80;1.17;;;;;;;6.41;59.26;101024.09;4955967;28;20047;-42
2023/04/26 02:42:42;;;;;;;14.50;1.52;;;;;;;6.39;59.07;101018.06;4953333;28;20027;-42
2023/04/26 02:45:08;;;;;;;4.55;1.00;;;;;;;6.40;59.01;101014.53;4952268;28;20077;-42
2023/04/26 02:47:35;;;;;;;5.15;2.22;;;;;;;6.34;59.94;101020.84;4960762;28;20109;-42
2023/04/26 02:50:02;;;;;;;5.13;0.73;;;;;;;6.22;60.28;101016.06;4953132;28;20035;-42
2023/04/26 02:52:28;;;;;;;4.35;1.70;;;;;;;6.21;60.33;101030.88;4960495;28;20098;-43
2023/04/26 02:54:53;;;;;;;6.03;1.05;;;;;;;6.19;60.06;101026.63;4956333;28;20038;-42
2023/04/26 02:57:19;;;;;;;6.07;1.33;;;;;;;6.14;60.77;101018.06;4948703;28;20039;-42
2023/04/26 02:59:44;;;;;;;8.93;1.23;;;;;;;6.10;60.61;101017.31;4959415;28;20030;-43
2023/04/26 03:02:10;;;;;;;5.10;0.90;;;;;;;6.07;60.55;101018.31;4964099;28;20047;-43
2023/04/26 03:04:35;;;;;;;6.78;1.35;;;;;;;6.17;59.89;101017.97;4960282;28;20034;-42
2023/04/26 03:07:03;;;;;;;11.57;2.53;;;;;;;6.27;59.78;101019.38;4955297;28;20053;-42
2023/04/26 03:09:29;;;;;;;8.40;1.15;;;;;;;6.29;59.36;101033.22;4960342;28;20035;-43
2023/04/26 03:11:55;;;;;;;10.57;1.95;;;;;;;6.09;60.64;101021.72;4948115;28;20027;-44
2023/04/26 03:14:20;;;;;;;8.38;1.88;;;;;;;6.08;60.53;101033.06;4960048;28;20031;-42
2023/04/26 03:16:47;;;;;;;2.78;1.00;;;;;;;6.07;60.69;101033.09;4962440;28;20031;-45
2023/04/26 03:19:13;;;;;;;10.98;1.77;;;;;;;6.04;60.75;101031.47;4951909;28;20042;-42
2023/04/26 03:21:38;;;;;;;9.55;2.00;;;;;;;6.04;60.91;101036.69;4961569;28;20031;-42
2023/04/26 03:24:04;;;;;;;6.55;1.08;;;;;;;6.03;61.00;101037.59;4957493;28;20107;-42
2023/04/26 03:26:30;;;;;;;11.43;1.63;;;;;;;6.11;60.36;101026.88;4956456;28;20030;-42
2023/04/26 03:28:55;;;;;;;4.55;1.40;;;;;;;6.18;60.18;101036.22;4961471;28;20045;-42
2023/04/26 03:31:21;;;;;;;6.03;2.08;;;;;;;6.19;59.88;101031.84;4958358;28;20101;-41
2023/04/26 03:33:47;;;;;;;8.30;1.30;;;;;;;6.21;60.08;101035.25;4957407;28;20076;-42
2023/04/26 03:36:12;;;;;;;3.88;1.35;;;;;;;6.14;60.68;101036.34;4958743;28;20026;-42
2023/04/26 03:38:37;;;;;;;10.35;2.65;;;;;;;6.20;60.13;101033.53;4954139;28;20031;-44
2023/04/26 03:41:03;;;;;;;7.05;1.13;;;;;;;6.22;59.60;101036.97;4957054;28;20034;-43
2023/04/26 03:43:28;;;;;;;10.80;2.25;;;;;;;6.18;60.04;101037.97;4955778;28;20405;-42
2023/04/26 03:45:54;;;;;;;4.82;0.88;;;;;;;6.21;59.78;101030.03;4958512;28;20022;-41
2023/04/26 03:48:20;;;;;;;11.38;1.70;;;;;;;6.21;60.03;101040.47;4962281;28;20089;-42
2023/04/26 03:50:45;;;;;;;12.45;1.75;;;;;;;6.22;59.96;101043.03;4955108;28;20038;-41
2023/04/26 03:53:11;;;;;;;11.23;2.00;;;;;;;6.30;59.69;101034.09;4954701;28;20095;-41
2023/04/26 03:55:36;;;;;;;8.02;1.40;;;;;;;6.31;59.53;101041.84;4959795;28;20122;-43
2023/04/26 03:58:06;;;;;;;6.50;1.15;;;;;;;6.21;60.16;101049.16;4954913;28;25757;-42
2023/04/26 04:00:38;;;;;;;11.57;1.50;;;;;;;6.18;60.29;101044.06;4954232;28;20041;-42
2023/04/26 04:03:04;;;;;;;8.35;1.80;;;;;;;6.13;60.54;101052.94;4957178;28;20031;-42
2023/04/26 04:05:29;;;;;;;8.00;1.38;;;;;;;6.14;60.45;101055.53;4952442;28;20513;-42
2023/04/26 04:07:55;;;;;;;7.93;1.17;;;;;;;6.12;60.95;101049.50;4952462;28;20031;-43
2023/04/26 04:10:22;;;;;;;6.00;1.70;;;;;;;6.11;61.07;101053.00;4952425;28;20038;-42
2023/04/26 04:12:48;;;;;;;3.22;1.00;;;;;;;6.19;60.39;101063.19;4945642;28;20714;-42
2023/04/26 04:15:13;;;;;;;7.88;1.75;;;;;;;6.21;60.04;101062.22;4959200;28;20039;-42
2023/04/26 04:17:39;;;;;;;4.75;1.48;;;;;;;6.20;60.45;101054.44;4951842;28;20120;-42
2023/04/26 04:20:06;;;;;;;9.43;1.88;;;;;;;6.19;60.40;101057.97;4948041;28;20093;-41
2023/04/26 04:22:31;;;;;;;6.72;1.38;;;;;;;6.24;60.59;101066.50;4956718;28;20042;-43
2023/04/26 04:24:58;;;;;;;6.65;1.45;;;;;;;6.20;60.54;101064.91;4930340;28;20034;-42
2023/04/26 04:27:24;;;;;;;5.45;1.48;;;;;;;6.17;60.66;101070.22;4946391;28;20070;-42
2023/04/26 04:29:49;;;;;;;4.88;1.77;;;;;;;6.16;60.77;101071.13;4963905;28;20043;-42
2023/04/26 04:32:16;;;;;;;4.13;1.13;;;;;;;6.14;61.80;101073.81;4949440;28;21075;-42
2023/04/26 04:34:42;;;;;;;14.07;1.25;;;;;;;6.18;60.50;101077.16;4952392;28;20046;-41
2023/04/26 04:37:07;;;;;;;10.85;2.63;;;;;;;6.14;60.60;101088.63;4952752;28;20085;-41
2023/04/26 04:39:33;;;;;;;7.82;1.58;;;;;;;6.14;60.91;101076.41;4953294;28;20452;-42
2023/04/26 04:41:59;;;;;;;6.38;1.17;;;;;;;6.17;60.79;101083.28;4952872;28;20038;-42
2023/04/26 04:44:25;;;;;;;8.23;1.80;;;;;;;6.18;61.15;101082.38;4956615;28;20109;-42
2023/04/26 04:46:51;;;;;;;8.57;1.75;;;;;;;6.16;61.13;101086.81;4952322;28;20054;-43
2023/04/26 04:49:17;;;;;;;9.65;2.03;;;;;;;6.13;61.54;101089.53;4947508;28;20169;-42
2023/04/26 04:51:43;;;;;;;3.63;1.58;;;;;;;6.16;61.12;101094.66;4960393;28;20030;-42
2023/04/26 04:54:16;;;;;;;6.28;1.27;;;;;;;6.29;60.97;101097.72;4954083;28;20065;-42
2023/04/26 04:56:43;;;;;;;2.90;1.00;;;;;;;6.36;60.51;101097.44;4957408;28;20035;-41
2023/04/26 04:59:09;;;;;;;5.38;1.50;;;;;;;6.31;60.85;101101.97;4953505;28;20038;-45
2023/04/26 05:01:36;;;;;;;6.47;1.15;;;;;;;6.31;61.14;101108.97;4963277;28;20039;-41
2023/04/26 05:04:01;;;;;;;4.90;1.50;;;;;;;6.22;61.40;101110.13;4956342;28;20061;-44
2023/04/26 05:06:28;;;;;;;5.03;1.80;;;;;;;6.28;61.18;101107.28;4956449;28;20112;-44
2023/04/26 05:08:55;;;;;;;8.30;1.35;;;;;;;6.43;60.31;101108.53;4954870;28;25026;-43
2023/04/26 05:11:20;;;;;;;7.20;1.25;;;;;;;6.52;60.05;101107.38;4960935;28;20031;-43
2023/04/26 05:13:47;;;;;;;6.35;1.17;;;;;;;6.63;59.90;101109.63;4964332;28;20027;-43
2023/04/26 05:16:13;;;;;;;7.43;1.77;;;;;;;6.56;60.46;101124.66;4954876;28;20035;-42
2023/04/26 05:18:38;;;;;;;7.40;1.42;;;;;;;6.39;60.89;101115.66;4961131;28;20042;-42
2023/04/26 05:21:03;;;;;;;5.90;1.77;;;;;;;6.38;60.77;101108.72;4958892;28;20441;-42
2023/04/26 05:23:29;;;;;;;1.02;0.73;;;;;;;6.42;61.46;101116.47;4957475;28;20034;-43
2023/04/26 05:25:55;;;;;;;6.85;2.30;;;;;;;6.34;61.39;101109.72;4952224;28;20460;-42
2023/04/26 05:28:20;;;;;;;12.20;1.70;;;;;;;6.37;61.34;101119.19;4950152;28;20525;-43
2023/04/26 05:30:46;;;;;;;10.30;1.90;;;;;;;6.45;60.89;101116.31;4954802;28;20055;-46
2023/04/26 05:33:12;;;;;;;6.70;1.35;;;;;;;6.51;60.90;101126.59;4950547;28;20510;-42
2023/04/26 05:35:38;;;;;;;7.68;1.35;;;;;;;6.47;61.40;101125.84;4952198;28;20133;-43
2023/04/26 05:38:03;;;;;;;5.65;1.10;;;;;;;6.50;61.32;101130.97;4955829;28;20130;-43
2023/04/26 05:40:28;;;;;;;4.60;0.90;;;;;;;6.45;61.49;101127.66;4967868;28;20038;-42
2023/04/26 05:42:54;;;;;;;5.30;1.95;;;;;;;6.52;61.21;101123.06;4956709;28;20413;-43
2023/04/26 05:45:19;;;;;;;4.38;1.35;;;;;;;6.54;61.56;101131.72;4951924;28;20042;-44
2023/04/26 05:47:46;;;;;;;7.10;2.70;;;;;;;6.60;60.80;101126.25;4956968;28;20389;-43
2023/04/26 05:50:11;;;;;;;5.47;1.00;;;;;;;6.56;61.41;101141.19;4956794;28;20042;-42
2023/04/26 05:52:37;;;;;;;9.10;1.15;;;;;;;6.64;60.48;101125.25;4967162;28;20034;-43
2023/04/26 05:55:03;;;;;;;7.70;1.73;;;;;;;6.81;60.30;101123.78;4965690;28;20082;-42
2023/04/26 05:57:29;;;;;;;9.30;1.17;;;;;;;6.85;60.05;101131.47;4968220;28;20046;-43
2023/04/26 05:59:55;;;;;;;4.70;1.38;;;;;;;6.92;60.03;101139.94;4965774;28;20026;-42
2023/04/26 06:02:20;;;;;;;8.80;2.30;;;;;;;6.89;59.97;101134.81;4966985;28;20217;-42
2023/04/26 06:04:46;;;;;;;4.80;1.40;;;;;;;6.99;59.73;101130.97;4967198;28;20081;-44
2023/04/26 06:07:11;;;;;;;6.85;1.40;;;;;;;6.98;59.26;101131.91;4964999;28;20045;-43
2023/04/26 06:09:37;;;;;;;21.13;7.38;;;;;;;7.01;58.94;101137.03;4972136;28;20065;-43
2023/04/26 06:12:03;;;;;;;7.05;1.35;;;;;;;7.00;59.46;101139.69;4967756;28;20034;-43
2023/04/26 06:14:28;;;;;;;8.93;1.70;;;;;;;7.14;59.03;101126.09;4969080;28;20031;-43
2023/04/26 06:16:55;;;;;;;4.07;1.42;;;;;;;7.14;58.68;101140.03;4964952;28;20482;-44
2023/04/26 06:19:20;;;;;;;6.78;1.27;;;;;;;7.28;58.41;101139.53;4959797;28;20050;-44
2023/04/26 06:21:47;;;;;;;11.48;1.75;;;;;;;7.32;58.61;101135.88;4960865;28;20034;-43
2023/04/26 06:24:13;;;;;;;10.05;2.13;;;;;;;7.18;58.72;101143.41;4965061;28;20093;-45
2023/04/26 06:26:38;;;;;;;5.88;0.93;;;;;;;7.32;58.17;101140.25;4958672;28;20032;-44
2023/04/26 06:29:03;;;;;;;5.32;1.63;;;;;;;7.35;58.13;101148.00;4964441;28;20027;-44
2023/04/26 06:31:29;;;;;;;7.22;1.80;;;;;;;7.29;58.38;101148.22;4955858;28;20035;-44
2023/04/26 06:33:54;;;;;;;9.80;2.10;;;;;;;7.32;57.88;101151.59;4958278;28;20057;-42
2023/04/26 06:36:20;;;;;;;10.73;1.75;;;;;;;7.41;58.16;101154.75;4962150;28;20513;-43
2023/04/26 06:38:45;;;;;;;8.75;1.60;;;;;;;7.47;57.97;101159.78;4964912;28;20042;-43
2023/04/26 06:41:11;;;;;;;6.68;1.70;;;;;;;7.51;57.83;101155.28;4963549;28;20038;-44
2023/04/26 06:43:36;;;;;;;7.50;1.42;;;;;;;7.54;57.60;101156.00;4965252;28;20040;-45
2023/04/26 06:46:02;;;;;;;7.70;1.38;;;;;;;7.61;56.80;101149.63;4959929;28;20031;-43
2023/04/26 06:48:27;;;;;;;7.47;1.90;;;;;;;7.57;56.83;101155.88;4963526;28;20419;-43
2023/04/26 06:50:52;;;;;;;10.68;2.40;;;;;;;7.76;56.95;101155.19;4970635;28;20182;-43
2023/04/26 06:53:18;;;;;;;9.52;2.05;;;;;;;7.80;56.51;101169.00;4956545;28;20077;-42
2023/04/26 06:55:43;;;;;;;6.78;1.35;;;;;;;7.64;57.05;101166.97;4963603;28;20100;-43
2023/04/26 06:58:09;;;;;;;5.50;1.17;;;;;;;7.68;56.51;101162.47;4964836;28;20077;-42
2023/04/26 07:00:34;;;;;;;5.90;1.40;;;;;;;7.73;56.50;101150.88;4960319;28;20034;-43
2023/04/26 07:03:00;;;;;;;8.43;1.92;;;;;;;7.82;56.45;101160.16;4966627;28;20031;-43
2023/04/26 07:05:25;;;;;;;15.35;2.33;;;;;;;8.00;55.91;101157.72;4967955;28;20041;-42
2023/04/26 07:07:51;;;;;;;12.05;1.70;;;;;;;8.05;55.76;101167.09;4968707;28;20137;-43
2023/04/26 07:10:16;;;;;;;10.23;1.92;;;;;;;8.10;54.76;101166.91;4967480;28;20080;-44
2023/04/26 07:12:42;;;;;;;8.57;2.47;;;;;;;8.12;54.92;101162.47;4970352;28;20069;-42
2023/04/26 07:15:08;;;;;;;11.88;1.45;;;;;;;8.27;54.82;101176.72;4964309;28;20042;-42
2023/04/26 07:17:33;;;;;;;7.82;1.58;;;;;;;8.30;54.70;101183.59;4965794;28;20058;-43
2023/04/26 07:19:59;;;;;;;9.57;1.85;;;;;;;8.37;54.31;101167.53;4969699;28;20066;-43
2023/04/26 07:22:25;;;;;;;6.88;1.90;;;;;;;8.26;54.42;101168.91;4963654;28;20042;-42
2023/04/26 07:24:50;;;;;;;6.45;2.05;;;;;;;8.35;53.82;101163.28;4967330;28;20089;-44
2023/04/26 07:27:16;;;;;;;3.95;1.00;;;;;;;8.21;53.94;101166.47;4965738;28;20043;-42
2023/04/26 07:29:41;;;;;;;6.78;1.33;;;;;;;8.41;53.48;101164.81;4971337;28;20042;-43
2023/04/26 07:32:06;;;;;;;7.05;1.20;;;;;;;8.44;53.43;101164.69;4970657;28;20426;-44
2023/04/26 07:34:32;;;;;;;11.52;2.47;;;;;;;8.49;53.12;101166.22;4968071;28;20035;-43
2023/04/26 07:36:57;;;;;;;7.18;1.88;;;;;;;8.63;52.82;101165.63;4966234;28;20050;-43
2023/04/26 07:39:23;;;;;;;5.22;1.23;;;;;;;8.58;52.19;101191.22;4971505;28;20086;-44
2023/04/26 07:41:48;;;;;;;6.65;1.00;;;;;;;8.50;50.91;101196.78;4968907;28;20822;-43
2023/04/26 07:44:14;;;;;;;4.93;1.50;;;;;;;8.47;51.35;101173.25;4970685;28;20038;-43
2023/04/26 07:46:39;;;;;;;4.07;1.50;;;;;;;8.60;51.22;101175.41;4965288;28;20505;-43
2023/04/26 07:49:05;;;;;;;14.43;3.90;;;;;;;8.68;51.59;101176.78;4966232;28;20120;-42
2023/04/26 07:51:30;;;;;;;12.90;2.42;;;;;;;8.72;51.91;101179.28;4965563;28;20034;-43
2023/04/26 07:53:56;;;;;;;5.18;1.00;;;;;;;8.78;50.81;101202.59;4970298;28;20026;-43
2023/04/26 07:56:23;;;;;;;7.20;1.40;;;;;;;8.77;51.61;101183.41;4968320;28;20046;-42
2023/04/26 07:58:48;;;;;;;7.75;1.25;;;;;;;8.84;51.45;101184.84;4963890;28;20434;-42
2023/04/26 08:01:14;;;;;;;12.43;1.63;;;;;;;8.89;50.65;101205.66;4960244;28;20093;-42
2023/04/26 08:03:40;;;;;;;9.07;1.55;;;;;;;8.98;50.66;101183.41;4963916;28;20057;-43
2023/04/26 08:06:07;;;;;;;5.47;1.02;;;;;;;9.03;50.23;101188.44;4970840;28;20058;-44
2023/04/26 08:08:34;;;;;;;8.57;1.25;;;;;;;9.08;49.82;101182.06;4969312;28;20035;-43
2023/04/26 08:10:59;;;;;;;9.25;1.77;;;;;;;9.06;49.15;101190.94;4968181;28;20051;-43
2023/04/26 08:13:25;;;;;;;3.60;1.10;;;;;;;9.10;48.72;101195.97;4969548;28;20054;-43
2023/04/26 08:15:50;;;;;;;7.13;1.85;;;;;;;9.29;49.00;101189.91;4967988;28;20097;-43
2023/04/26 08:18:15;;;;;;;8.73;1.38;;;;;;;9.38;48.53;101213.13;4966832;28;20406;-44
2023/04/26 08:20:41;;;;;;;5.60;1.17;;;;;;;9.51;48.58;101189.78;4978537;28;20524;-43
2023/04/26 08:23:06;;;;;;;9.05;1.80;;;;;;;9.69;48.26;101208.22;4960422;28;20082;-44
2023/04/26 08:25:33;;;;;;;4.28;1.35;;;;;;;9.69;47.09;101206.47;4963555;28;20053;-44
2023/04/26 08:27:59;;;;;;;7.63;1.38;;;;;;;9.74;47.46;101212.38;4963937;28;20042;-43
2023/04/26 08:30:25;;;;;;;8.85;1.67;;;;;;;9.82;47.31;101211.13;4961147;28;20039;-43
2023/04/26 08:32:50;;;;;;;18.67;1.77;;;;;;;9.69;45.26;101230.09;4954129;28;20039;-43
2023/04/26 08:35:15;;;;;;;5.75;1.23;;;;;;;9.70;45.09;101226.56;4959168;28;20023;-43
2023/04/26 08:37:41;;;;;;;9.35;1.48;;;;;;;9.82;46.32;101205.88;4964847;28;20035;-44
2023/04/26 08:40:10;;;;;;;6.03;1.02;;;;;;;9.98;46.02;101222.63;4958414;28;20050;-44
2023/04/26 08:42:41;;;;;;;3.83;1.13;;;;;;;10.01;44.78;101234.75;4963207;28;20030;-44
2023/04/26 08:45:07;;;;;;;4.18;0.88;;;;;;;9.96;45.33;101219.22;4964814;28;20027;-43
2023/04/26 08:47:44;;;;;;;5.40;1.35;;;;;;;10.21;45.10;101218.03;4962176;28;20572;-43
2023/04/26 08:50:11;;;;;;;5.40;1.17;;;;;;;10.22;44.90;101211.84;4968347;28;20031;-44
2023/04/26 08:52:39;;;;;;;4.95;1.27;;;;;;;10.18;43.00;101212.94;4964679;28;20034;-43
2023/04/26 08:55:07;;;;;;;4.38;0.70;;;;;;;10.21;43.80;101220.66;4963731;28;20065;-43
2023/04/26 08:57:33;;;;;;;7.18;1.42;;;;;;;9.80;43.01;101212.97;4963505;28;20142;-44
2023/04/26 08:59:58;;;;;;;8.18;1.65;;;;;;;9.68;43.58;101219.69;4964089;28;20121;-43
2023/04/26 09:02:24;;;;;;;4.07;1.30;;;;;;;9.59;43.53;101215.69;4959113;28;20049;-43
2023/04/26 09:04:50;;;;;;;8.27;1.60;;;;;;;9.63;42.43;101221.66;4967569;28;20065;-45
2023/04/26 09:07:24;;;;;;;10.30;1.77;;;;;;;9.88;43.04;101227.47;4968497;28;20034;-45
2023/04/26 09:09:50;;;;;;;7.35;1.70;;;;;;;9.81;42.83;101219.94;4968552;28;20035;-46
2023/04/26 09:12:20;;;;;;;3.97;1.10;;;;;;;9.93;42.67;101214.09;4968346;28;20031;-43
2023/04/26 09:14:46;;;;;;;2.13;0.55;;;;;;;9.93;42.32;101235.13;4972217;28;20099;-46
2023/04/26 09:17:31;;;;;;;4.70;1.05;;;;;;;10.02;40.51;101223.31;4970338;28;20101;-44
2023/04/26 09:19:58;;;;;;;1.60;0.73;;;;;;;10.17;41.94;101219.13;4966421;28;20029;-43
2023/04/26 09:22:32;;;;;;;6.07;1.95;;;;;;;10.33;41.03;101233.25;4971580;28;20109;-43
2023/04/26 09:24:58;;;;;;;8.07;1.65;;;;;;;10.19;41.34;101220.75;4970613;28;20045;-43
2023/04/26 09:27:42;;;;;;;6.82;1.90;;;;;;;10.19;39.92;101235.69;4969396;28;20029;-43
2023/04/26 09:30:10;;;;;;;5.05;0.95;;;;;;;10.06;41.21;101222.25;4971698;28;20410;-43
2023/04/26 09:32:46;;;;;;;3.40;0.88;;;;;;;10.44;42.14;101218.72;4971993;28;20030;-43
2023/04/26 09:35:26;;;;;;;8.45;1.20;;;;;;;10.62;40.65;101228.34;4972170;28;20045;-44
2023/04/26 09:38:02;;;;;;;7.72;1.50;;;;;;;10.67;42.00;101226.31;4975792;28;20054;-43
2023/04/26 09:40:31;;;;;;;2.13;0.90;;;;;;;10.75;40.87;101248.78;4965760;28;20070;-43
2023/04/26 09:43:20;;;;;;;4.75;0.90;;;;;;;10.64;40.78;101238.78;4970089;28;20038;-43
2023/04/26 09:45:45;;;;;;;7.63;1.67;;;;;;;10.54;41.43;101237.53;4967332;28;20038;-45
2023/04/26 09:48:15;;;;;;;4.88;1.52;;;;;;;10.62;41.20;101244.13;4971275;28;20485;-43
2023/04/26 09:50:41;;;;;;;3.85;1.05;;;;;;;10.64;41.23;101237.00;4968596;28;20458;-43
2023/04/26 09:53:07;;;;;;;3.10;1.27;;;;;;;10.76;41.56;101245.22;4968740;28;20408;-43
2023/04/26 09:55:33;;;;;;;7.60;1.58;;;;;;;10.51;40.72;101246.44;4964836;28;20030;-43
2023/04/26 09:58:06;;;;;;;6.85;1.20;;;;;;;10.35;41.22;101239.28;4966013;28;20031;-44
2023/04/26 10:00:33;;;;;;;5.65;1.73;;;;;;;10.57;41.68;101245.28;4964044;28;20869;-43
2023/04/26 10:02:58;;;;;;;5.25;1.42;;;;;;;10.63;41.35;101245.84;4965456;28;20081;-43
2023/04/26 10:05:25;;;;;;;6.57;1.48;;;;;;;10.70;41.29;101250.78;4958304;28;20031;-44
2023/04/26 10:07:50;;;;;;;6.45;1.35;;;;;;;10.55;41.79;101240.09;4958991;28;20515;-44
2023/04/26 10:10:17;;;;;;;2.83;1.45;;;;;;;10.59;42.04;101231.13;4965342;28;20102;-43
2023/04/26 10:12:43;;;;;;;4.18;1.15;;;;;;;10.66;42.48;101234.28;4966775;28;20517;-44
2023/04/26 10:15:10;;;;;;;5.40;1.00;;;;;;;10.60;42.14;101238.09;4965410;28;20023;-42
2023/04/26 10:17:39;;;;;;;7.95;1.88;;;;;;;10.73;42.11;101242.72;4958003;28;20031;-43
2023/04/26 10:20:09;;;;;;;3.53;1.10;;;;;;;10.90;42.14;101237.47;4969946;28;20409;-43
2023/04/26 10:22:42;;;;;;;7.25;2.15;;;;;;;10.86;41.75;101246.44;4966805;28;20027;-43
2023/04/26 10:25:08;;;;;;;8.05;1.45;;;;;;;10.55;41.08;101242.72;4969717;28;20023;-43
2023/04/26 10:27:43;;;;;;;2.33;1.15;;;;;;;10.55;40.91;101242.72;4968239;28;20031;-44
2023/04/26 10:30:13;;;;;;;5.85;1.63;;;;;;;10.58;41.79;101245.19;4966969;28;20653;-44
2023/04/26 10:32:56;;;;;;;4.55;1.00;;;;;;;10.83;41.57;101243.97;4970815;28;20097;-43
2023/04/26 10:35:24;;;;;;;8.13;1.80;;;;;;;11.02;41.78;101232.50;4966053;28;20027;-44
2023/04/26 10:38:02;;;;;;;4.78;1.00;;;;;;;11.29;40.48;101238.94;4966805;28;20580;-45
2023/04/26 10:40:33;;;;;;;3.33;1.15;;;;;;;11.38;39.84;101228.88;4967956;28;20053;-44
2023/04/26 10:43:07;;;;;;;11.10;1.90;;;;;;;11.57;40.24;101236.63;4964283;28;20023;-43
2023/04/26 10:45:33;;;;;;;3.97;0.95;;;;;;;11.54;40.03;101260.50;4966111;28;20034;-43
2023/04/26 10:48:22;;;;;;;5.00;1.30;;;;;;;11.49;37.94;101259.91;4969379;28;20437;-43
2023/04/26 10:51:11;;;;;;;5.30;1.33;;;;;;;11.48;38.44;101255.59;4966769;28;20501;-44
2023/04/26 10:53:50;;;;;;;5.90;1.10;;;;;;;11.12;38.89;101242.47;4967958;28;20121;-44
2023/04/26 10:56:25;;;;;;;3.35;1.33;;;;;;;11.14;39.43;101245.00;4968457;28;20031;-43
2023/04/26 10:59:10;;;;;;;7.25;1.63;;;;;;;11.10;39.38;101264.56;4966270;28;20468;-43
2023/04/26 11:01:36;;;;;;;6.25;1.60;;;;;;;11.12;40.49;101249.50;4967466;28;20039;-44
2023/04/26 11:04:11;;;;;;;8.65;1.45;;;;;;;11.15;40.53;101249.34;4959948;28;20033;-45
2023/04/26 11:06:47;;;;;;;11.45;2.13;;;;;;;11.24;40.78;101251.53;4968168;28;20035;-44
2023/04/26 11:09:38;;;;;;;4.65;0.80;;;;;;;11.33;40.13;101249.31;4966677;28;20037;-43
2023/04/26 11:12:11;;;;;;;3.05;1.10;;;;;;;11.31;40.58;101245.91;4965858;28;20027;-45
2023/04/26 11:14:38;;;;;;;6.32;1.33;;;;;;;11.49;40.86;101247.56;4965156;28;20404;-42
2023/04/26 11:17:05;;;;;;;2.80;1.58;;;;;;;11.58;40.41;101254.13;4969296;28;20031;-42
2023/04/26 11:19:31;;;;;;;1.65;0.80;;;;;;;11.57;40.19;101260.34;4959628;28;20121;-44
2023/04/26 11:22:01;;;;;;;5.43;1.63;;;;;;;11.58;41.45;101249.72;4965330;28;20059;-43
2023/04/26 11:24:29;;;;;;;4.63;1.60;;;;;;;11.54;41.27;101263.13;4960995;28;20033;-43
2023/04/26 11:26:55;;;;;;;7.32;1.50;;;;;;;11.48;40.42;101274.03;4961083;28;20022;-44
2023/04/26 11:29:21;;;;;;;9.25;1.65;;;;;;;11.63;40.82;101256.53;4949745;28;20034;-43
2023/04/26 11:31:54;;;;;;;8.07;1.23;;;;;;;11.97;40.48;101252.88;4960100;28;20065;-44